Terminal Aerodrome Forecast
Issued by NWS Cleveland, OH

Home | Current Version | Previous Version | Graphics & Text | Print | Product List | Glossary On
Versions: 1 2 3 4 5 6 7 8 9 10 11 12 13 14 15 16 17 18 19 20 21 22 23
000
FTUS41 KCLE 160342 AAA
TAFYNG
TAF AMD
KYNG 160342Z 1604/1624 32008KT 3SM -RA BR BKN005 OVC030
     FM161000 33008KT 5SM BR OVC007
     FM161600 32014KT P6SM OVC010
     FM162000 32013KT P6SM BKN025=

USA.gov is the U.S. government's official web portal to all federal, state and local government web resources and services.